Time;durP1;ratioP1;P1;durP2;ratioP2;P2;SDS_P1;SDS_P2;PMS_P1;PMS_P2;Temp;Humidity;BMP_temperature;BMP_pressure;BME280_temperature;BME280_humidity;BME280_pressure;Samples;Min_cycle;Max_cycle;Signal;HPM_P1;HPM_P2
2021/01/07 00:02:22;;;;;;;6.53;2.65;;;0.90;99.90;;;;;;5064642;28;20028;-77
2021/01/07 00:04:47;;;;;;;3.00;2.33;;;0.90;99.90;;;;;;5070575;28;20737;-76
2021/01/07 00:07:13;;;;;;;5.18;3.28;;;0.90;99.90;;;;;;5060815;28;20109;-78
2021/01/07 00:09:39;;;;;;;5.55;3.20;;;0.90;99.90;;;;;;5018673;28;20037;-77
2021/01/07 00:12:05;;;;;;;4.90;2.80;;;0.90;99.90;;;;;;5034664;28;20076;-77
2021/01/07 00:14:31;;;;;;;4.57;2.60;;;0.90;99.90;;;;;;5055785;28;20054;-77
2021/01/07 00:16:59;;;;;;;4.43;2.53;;;0.90;99.90;;;;;;5058268;28;20020;-76
2021/01/07 00:19:25;;;;;;;5.75;3.08;;;0.80;99.90;;;;;;5066360;28;20066;-76
2021/01/07 00:21:50;;;;;;;5.13;2.60;;;0.80;99.90;;;;;;5063614;28;20029;-76
2021/01/07 00:24:16;;;;;;;5.25;2.95;;;0.90;99.90;;;;;;5063777;28;20107;-76
2021/01/07 00:26:42;;;;;;;5.55;2.90;;;0.90;99.90;;;;;;5063255;28;20055;-76
2021/01/07 00:29:07;;;;;;;5.22;3.35;;;0.90;99.90;;;;;;5052665;28;20480;-76
2021/01/07 00:31:33;;;;;;;4.25;2.78;;;0.90;99.90;;;;;;5065136;28;20036;-76
2021/01/07 00:33:59;;;;;;;5.03;2.80;;;0.80;99.90;;;;;;5051422;28;20120;-76
2021/01/07 00:36:25;;;;;;;3.65;2.38;;;0.90;99.90;;;;;;5049533;28;20031;-76
2021/01/07 00:38:50;;;;;;;4.75;2.78;;;0.90;99.90;;;;;;5049160;28;20035;-76
2021/01/07 00:41:17;;;;;;;4.72;2.75;;;0.90;99.90;;;;;;5040914;28;20104;-76
2021/01/07 00:43:44;;;;;;;4.15;2.78;;;0.90;99.90;;;;;;5067798;28;20036;-76
2021/01/07 00:46:11;;;;;;;3.92;2.45;;;0.90;99.90;;;;;;5069761;28;20052;-76
2021/01/07 00:48:36;;;;;;;2.60;2.25;;;1.00;99.90;;;;;;5068698;28;20086;-76
2021/01/07 00:51:03;;;;;;;3.08;2.38;;;0.90;99.90;;;;;;5067968;28;20056;-76
2021/01/07 00:53:29;;;;;;;3.33;2.33;;;0.90;99.90;;;;;;5019035;28;20038;-76
2021/01/07 00:55:55;;;;;;;3.67;2.53;;;0.90;99.90;;;;;;5067554;28;20405;-76
2021/01/07 00:58:20;;;;;;;4.63;3.22;;;0.90;99.90;;;;;;5068362;28;20376;-76
2021/01/07 01:00:46;;;;;;;4.45;3.00;;;0.90;99.90;;;;;;5067389;28;20511;-76
2021/01/07 01:03:13;;;;;;;5.88;3.72;;;0.90;99.90;;;;;;5067956;28;20048;-76
2021/01/07 01:05:39;;;;;;;5.20;3.10;;;0.90;99.90;;;;;;5068109;28;20090;-76
2021/01/07 01:08:05;;;;;;;6.03;3.40;;;0.90;99.90;;;;;;5069161;28;20032;-76
2021/01/07 01:10:31;;;;;;;5.32;3.53;;;0.90;99.90;;;;;;5067398;28;20547;-76
2021/01/07 01:12:56;;;;;;;6.13;3.50;;;0.90;99.90;;;;;;5069132;28;20041;-76
2021/01/07 01:15:22;;;;;;;5.00;3.17;;;0.90;99.90;;;;;;5051375;28;20040;-76
2021/01/07 01:17:48;;;;;;;6.53;3.65;;;0.90;99.90;;;;;;5069412;28;20104;-76
2021/01/07 01:20:14;;;;;;;7.50;4.10;;;0.90;99.90;;;;;;5050066;28;20033;-76
2021/01/07 01:22:41;;;;;;;6.15;3.10;;;0.90;99.90;;;;;;5072833;28;20039;-76
2021/01/07 01:25:08;;;;;;;6.68;3.70;;;0.90;99.90;;;;;;5072298;28;20135;-76
2021/01/07 01:27:40;;;;;;;5.47;3.03;;;0.90;99.90;;;;;;5072855;28;20117;-76
2021/01/07 01:30:07;;;;;;;6.72;3.60;;;0.90;99.90;;;;;;5053994;28;20032;-76
2021/01/07 01:32:37;;;;;;;5.97;3.63;;;0.90;99.90;;;;;;5068679;28;20186;-76
2021/01/07 01:35:06;;;;;;;5.43;3.35;;;0.90;99.90;;;;;;5054997;28;20037;-76
2021/01/07 01:37:38;;;;;;;4.85;3.08;;;0.90;99.90;;;;;;5060590;28;20498;-76
2021/01/07 01:40:09;;;;;;;7.90;3.88;;;0.80;99.90;;;;;;5070009;28;20056;-76
2021/01/07 01:42:34;;;;;;;7.45;3.95;;;0.80;99.90;;;;;;5072347;28;20083;-76
2021/01/07 01:45:00;;;;;;;6.43;3.75;;;0.90;99.90;;;;;;5071944;28;20534;-76
2021/01/07 01:47:26;;;;;;;6.75;3.92;;;0.80;99.90;;;;;;5072645;28;20067;-76
2021/01/07 01:49:54;;;;;;;7.78;4.28;;;0.80;99.90;;;;;;5070393;28;20036;-76
2021/01/07 01:52:21;;;;;;;5.82;3.72;;;0.90;99.90;;;;;;5072191;28;20028;-76
2021/01/07 01:54:47;;;;;;;5.97;3.80;;;0.90;99.90;;;;;;5071455;28;20478;-77
2021/01/07 01:57:13;;;;;;;5.97;3.42;;;0.90;99.90;;;;;;5072346;28;20039;-76
2021/01/07 01:59:40;;;;;;;6.60;3.63;;;0.90;99.90;;;;;;5070057;28;20036;-76
2021/01/07 02:02:07;;;;;;;6.95;4.10;;;0.90;99.90;;;;;;5077711;28;20029;-76
2021/01/07 02:04:33;;;;;;;5.22;3.45;;;0.90;99.90;;;;;;5072336;28;20107;-76
2021/01/07 02:07:01;;;;;;;5.03;3.28;;;0.90;99.90;;;;;;5070910;28;20166;-76
2021/01/07 02:09:28;;;;;;;4.95;3.00;;;0.90;99.90;;;;;;5071540;28;20086;-76
2021/01/07 02:11:56;;;;;;;5.80;3.45;;;0.90;99.90;;;;;;5054708;28;20108;-76
2021/01/07 02:14:21;;;;;;;5.22;3.42;;;0.90;99.90;;;;;;5070539;28;20044;-76
2021/01/07 02:16:47;;;;;;;5.50;3.40;;;0.90;99.90;;;;;;5054444;28;20409;-76
2021/01/07 02:19:14;;;;;;;4.13;2.85;;;0.90;99.90;;;;;;5070058;28;20056;-76
2021/01/07 02:21:40;;;;;;;4.22;3.08;;;0.90;99.90;;;;;;5071583;28;20438;-76
2021/01/07 02:24:07;;;;;;;5.82;3.40;;;0.90;99.90;;;;;;5070727;28;20043;-76
2021/01/07 02:26:34;;;;;;;6.50;3.13;;;1.00;99.90;;;;;;5071888;28;20036;-76
2021/01/07 02:28:59;;;;;;;5.25;3.22;;;0.90;99.90;;;;;;5071403;28;20060;-76
2021/01/07 02:31:25;;;;;;;5.03;3.05;;;0.90;99.90;;;;;;5070015;28;20082;-76
2021/01/07 02:33:51;;;;;;;4.75;3.10;;;1.00;99.90;;;;;;5054812;28;20131;-76
2021/01/07 02:36:16;;;;;;;6.78;3.55;;;1.00;99.90;;;;;;5052042;28;20029;-76
2021/01/07 02:38:42;;;;;;;5.75;3.42;;;1.00;99.90;;;;;;5051287;28;20025;-76
2021/01/07 02:41:08;;;;;;;5.28;3.08;;;1.00;99.90;;;;;;5059933;28;20783;-76
2021/01/07 02:43:37;;;;;;;7.85;3.45;;;1.00;99.90;;;;;;5053342;28;20383;-76
2021/01/07 02:46:03;;;;;;;5.85;3.35;;;1.00;99.90;;;;;;5054237;28;20044;-76
2021/01/07 02:48:28;;;;;;;5.97;3.15;;;1.00;99.90;;;;;;5071175;28;20379;-76
2021/01/07 02:50:54;;;;;;;5.07;3.33;;;1.00;99.90;;;;;;5069392;28;20044;-76
2021/01/07 02:53:20;;;;;;;6.10;3.78;;;1.00;99.90;;;;;;5071542;28;20036;-76
2021/01/07 02:55:45;;;;;;;6.25;3.85;;;1.00;99.90;;;;;;5070120;28;20037;-76
2021/01/07 02:58:14;;;;;;;6.50;3.88;;;1.00;99.90;;;;;;5069695;28;20037;-76
2021/01/07 03:00:40;;;;;;;5.60;3.42;;;1.00;99.90;;;;;;5069430;28;20090;-76
2021/01/07 03:03:06;;;;;;;5.32;3.47;;;0.90;99.90;;;;;;5069953;28;20032;-76
2021/01/07 03:05:32;;;;;;;6.43;3.58;;;0.90;99.90;;;;;;5053424;28;20502;-76
2021/01/07 03:07:59;;;;;;;5.60;3.42;;;0.90;99.90;;;;;;5069988;28;20033;-76
2021/01/07 03:10:25;;;;;;;6.22;3.38;;;0.90;99.90;;;;;;5069275;28;20085;-76
2021/01/07 03:12:50;;;;;;;5.55;3.58;;;0.90;99.90;;;;;;5070825;28;20503;-76
2021/01/07 03:15:16;;;;;;;4.90;2.67;;;0.90;99.90;;;;;;5070093;28;20036;-76
2021/01/07 03:17:42;;;;;;;6.63;3.70;;;0.80;99.90;;;;;;5071076;28;20048;-76
2021/01/07 03:20:15;;;;;;;6.30;3.70;;;0.80;99.90;;;;;;5068373;28;20024;-76
2021/01/07 03:22:42;;;;;;;6.22;3.58;;;0.80;99.90;;;;;;5070824;28;20025;-76
2021/01/07 03:25:09;;;;;;;6.25;3.33;;;0.80;99.90;;;;;;5070776;28;20028;-76
2021/01/07 03:27:39;;;;;;;8.13;3.70;;;0.80;99.90;;;;;;5070863;28;20048;-76
2021/01/07 03:30:08;;;;;;;6.47;3.20;;;0.80;99.90;;;;;;5069553;28;20438;-76
2021/01/07 03:32:35;;;;;;;7.00;3.50;;;0.80;99.90;;;;;;5056971;28;20533;-76
2021/01/07 03:35:02;;;;;;;4.88;3.40;;;0.80;99.90;;;;;;5070766;28;20036;-76
2021/01/07 03:37:28;;;;;;;6.38;3.78;;;0.70;99.90;;;;;;5085000;28;20482;-76
2021/01/07 03:39:54;;;;;;;5.57;2.92;;;0.80;99.90;;;;;;5071634;28;20039;-76
2021/01/07 03:42:19;;;;;;;6.68;3.53;;;0.70;99.90;;;;;;5068134;28;20035;-76
2021/01/07 03:44:45;;;;;;;9.35;4.32;;;0.80;99.90;;;;;;5069149;28;20036;-76
2021/01/07 03:47:11;;;;;;;7.30;3.70;;;0.80;99.90;;;;;;5069283;28;20202;-76
2021/01/07 03:49:36;;;;;;;5.75;3.40;;;0.70;99.90;;;;;;5051178;28;20037;-76
2021/01/07 03:52:02;;;;;;;6.25;3.55;;;0.70;99.90;;;;;;5052272;28;20448;-76
2021/01/07 03:54:28;;;;;;;5.80;3.72;;;0.70;99.90;;;;;;5070222;28;20059;-76
2021/01/07 03:56:54;;;;;;;5.88;3.17;;;0.80;99.90;;;;;;5068974;28;20043;-76
2021/01/07 03:59:20;;;;;;;6.85;3.40;;;0.70;99.90;;;;;;5069770;28;20067;-76
2021/01/07 04:01:46;;;;;;;6.18;3.65;;;0.70;99.90;;;;;;5069826;28;20062;-76
2021/01/07 04:04:14;;;;;;;6.47;3.63;;;0.70;99.90;;;;;;5068767;28;20034;-77
2021/01/07 04:06:39;;;;;;;7.50;3.92;;;0.70;99.90;;;;;;5068949;28;20410;-76
2021/01/07 04:09:05;;;;;;;6.90;4.00;;;0.70;99.90;;;;;;5068255;28;20400;-76
2021/01/07 04:11:31;;;;;;;6.50;3.10;;;0.70;99.90;;;;;;5068573;28;20032;-76
2021/01/07 04:13:57;;;;;;;6.97;3.78;;;0.70;99.90;;;;;;5068559;28;20387;-76
2021/01/07 04:16:24;;;;;;;5.53;3.17;;;0.70;99.90;;;;;;5052357;28;20043;-76
2021/01/07 04:18:50;;;;;;;5.90;3.17;;;0.70;99.90;;;;;;5067823;28;20027;-76
2021/01/07 04:21:19;;;;;;;6.45;3.28;;;0.70;99.90;;;;;;5068287;28;20427;-76
2021/01/07 04:23:46;;;;;;;8.52;3.58;;;0.70;99.90;;;;;;5069173;28;20060;-76
2021/01/07 04:26:13;;;;;;;5.80;3.38;;;0.60;99.90;;;;;;5070042;28;20048;-76
2021/01/07 04:28:39;;;;;;;6.75;3.60;;;0.60;99.90;;;;;;5068256;28;20391;-76
2021/01/07 04:31:05;;;;;;;7.13;3.70;;;0.60;99.90;;;;;;5051384;28;20036;-76
2021/01/07 04:33:30;;;;;;;8.10;4.00;;;0.60;99.90;;;;;;5068019;28;20039;-77
2021/01/07 04:35:56;;;;;;;9.07;3.90;;;0.50;99.90;;;;;;5069944;28;20375;-76
2021/01/07 04:38:22;;;;;;;7.03;3.92;;;0.60;99.90;;;;;;5067836;28;20036;-76
2021/01/07 04:40:47;;;;;;;7.80;4.07;;;0.60;99.90;;;;;;5066363;28;20175;-76
2021/01/07 04:43:13;;;;;;;8.85;4.60;;;0.50;99.90;;;;;;5068104;28;20029;-76
2021/01/07 04:45:39;;;;;;;8.35;3.83;;;0.60;99.90;;;;;;5068176;28;20549;-77
2021/01/07 04:48:07;;;;;;;7.50;3.85;;;0.50;99.90;;;;;;5069179;28;20135;-76
2021/01/07 04:50:33;;;;;;;7.82;4.18;;;0.50;99.90;;;;;;5067728;28;20024;-76
2021/01/07 04:52:59;;;;;;;9.77;3.80;;;0.50;99.90;;;;;;5067939;28;20111;-76
2021/01/07 04:55:26;;;;;;;6.53;3.65;;;0.50;99.90;;;;;;5068428;28;20120;-76
2021/01/07 04:57:52;;;;;;;8.25;4.03;;;0.50;99.90;;;;;;5068151;28;20127;-76
2021/01/07 05:00:19;;;;;;;7.80;3.90;;;0.50;99.90;;;;;;5066919;28;20051;-76
2021/01/07 05:02:46;;;;;;;7.60;4.00;;;0.50;99.90;;;;;;5051189;28;20032;-76
2021/01/07 05:05:11;;;;;;;7.22;3.35;;;0.50;99.90;;;;;;5069551;28;20028;-76
2021/01/07 05:07:38;;;;;;;7.50;3.92;;;0.50;99.90;;;;;;5067928;28;20106;-76
2021/01/07 05:10:09;;;;;;;6.57;3.47;;;0.50;99.90;;;;;;5050374;28;20043;-76
2021/01/07 05:12:36;;;;;;;5.07;2.65;;;0.50;99.90;;;;;;5068988;28;20449;-76
2021/01/07 05:15:05;;;;;;;7.95;3.65;;;0.50;99.90;;;;;;5069460;28;20090;-76
2021/01/07 05:17:31;;;;;;;6.28;3.40;;;0.50;99.90;;;;;;5069005;28;20437;-76
2021/01/07 05:19:56;;;;;;;5.53;3.45;;;0.50;99.90;;;;;;5067855;28;20033;-76
2021/01/07 05:22:38;;;;;;;6.78;3.50;;;0.50;99.90;;;;;;5050985;28;20037;-76
2021/01/07 05:25:23;;;;;;;7.78;3.92;;;0.50;99.90;;;;;;5065006;28;20033;-76
2021/01/07 05:27:50;;;;;;;8.45;4.32;;;0.50;99.90;;;;;;5068807;28;20052;-76
2021/01/07 05:30:17;;;;;;;5.45;3.22;;;0.50;99.90;;;;;;5066085;28;20028;-76
2021/01/07 05:32:44;;;;;;;7.55;4.13;;;0.50;99.90;;;;;;5068472;28;20036;-76
2021/01/07 05:35:20;;;;;;;7.45;3.80;;;0.50;99.90;;;;;;5067996;28;20495;-76
2021/01/07 05:37:46;;;;;;;7.15;3.40;;;0.50;99.90;;;;;;5069233;28;20028;-76
2021/01/07 05:40:12;;;;;;;7.18;3.65;;;0.50;99.90;;;;;;5067909;28;20032;-76
2021/01/07 05:42:41;;;;;;;8.07;3.70;;;0.50;99.90;;;;;;5050778;28;20037;-76
2021/01/07 05:45:11;;;;;;;6.80;3.78;;;0.40;99.90;;;;;;5069020;28;20472;-76
2021/01/07 05:47:43;;;;;;;9.63;4.68;;;0.40;99.90;;;;;;5069118;28;20029;-76
2021/01/07 05:50:10;;;;;;;7.90;3.63;;;0.40;99.90;;;;;;5049771;28;20043;-76
2021/01/07 05:52:42;;;;;;;6.53;4.07;;;0.40;99.90;;;;;;5068541;28;20029;-76
2021/01/07 05:55:10;;;;;;;6.90;3.70;;;0.40;99.90;;;;;;5067684;28;20395;-76
2021/01/07 05:57:40;;;;;;;5.55;3.38;;;0.40;99.90;;;;;;5051134;28;20033;-77
2021/01/07 06:00:12;;;;;;;7.03;3.33;;;0.40;99.90;;;;;;5066282;28;20089;-77
2021/01/07 06:02:40;;;;;;;7.63;4.13;;;0.40;99.90;;;;;;5047847;28;20786;-76
2021/01/07 06:05:09;;;;;;;13.95;4.13;;;0.40;99.90;;;;;;5056574;28;20384;-76
2021/01/07 06:07:36;;;;;;;5.82;3.42;;;0.30;99.90;;;;;;5067493;28;20020;-76
2021/01/07 06:10:04;;;;;;;5.63;3.03;;;0.40;99.90;;;;;;5064230;28;20063;-76
2021/01/07 06:12:30;;;;;;;8.57;4.43;;;0.30;99.90;;;;;;5061608;28;20017;-76
2021/01/07 06:14:59;;;;;;;7.95;4.18;;;0.30;99.90;;;;;;5059193;28;20628;-76
2021/01/07 06:17:25;;;;;;;6.13;3.08;;;0.30;99.90;;;;;;5062398;28;20048;-76
2021/01/07 06:19:54;;;;;;;9.05;3.70;;;0.30;99.90;;;;;;5067981;28;20072;-76
2021/01/07 06:22:21;;;;;;;7.95;3.80;;;0.30;99.90;;;;;;5072314;28;20127;-76
2021/01/07 06:24:53;;;;;;;8.23;3.92;;;0.30;99.90;;;;;;5076588;28;20108;-76
2021/01/07 06:27:28;;;;;;;6.55;3.28;;;0.30;99.90;;;;;;5071148;28;20035;-76
2021/01/07 06:30:03;;;;;;;;;;;0.30;99.90;;;;;;5070777;28;20033;-76
2021/01/07 06:32:29;;;;;;;8.35;4.10;;;0.30;99.90;;;;;;5066936;28;20283;-76
2021/01/07 06:34:57;;;;;;;7.05;3.58;;;0.30;99.90;;;;;;5059956;28;20031;-76
2021/01/07 06:37:41;;;;;;;8.85;4.40;;;0.30;99.90;;;;;;5043888;28;20090;-76
2021/01/07 06:40:10;;;;;;;8.88;4.10;;;0.30;99.90;;;;;;5061029;28;20480;-76
2021/01/07 06:42:43;;;;;;;9.13;3.70;;;0.30;99.90;;;;;;5061032;28;20040;-76
2021/01/07 06:45:11;;;;;;;8.00;3.55;;;0.30;99.90;;;;;;5060750;28;20032;-76
2021/01/07 06:47:38;;;;;;;8.80;4.50;;;0.30;99.90;;;;;;5060580;28;20064;-76
2021/01/07 06:50:05;;;;;;;8.45;4.00;;;0.30;99.90;;;;;;5058022;28;20029;-76
2021/01/07 06:52:41;;;;;;;6.75;3.53;;;0.20;99.90;;;;;;5057200;28;20101;-76
2021/01/07 06:55:15;;;;;;;9.73;4.65;;;0.30;99.90;;;;;;5064394;28;20028;-76
2021/01/07 06:57:50;;;;;;;11.02;4.85;;;0.20;99.90;;;;;;5058213;28;20621;-76
2021/01/07 07:00:17;;;;;;;9.98;4.50;;;0.20;99.90;;;;;;5039849;28;20028;-76
2021/01/07 07:03:01;;;;;;;9.63;4.80;;;0.30;99.90;;;;;;5050074;28;20029;-76
2021/01/07 07:05:31;;;;;;;10.68;4.57;;;0.30;99.90;;;;;;5074264;28;20495;-76
2021/01/07 07:08:32;;;;;;;8.48;4.07;;;0.30;99.90;;;;;;5070460;28;20032;-76
2021/01/07 07:11:01;;;;;;;9.13;4.45;;;0.30;99.90;;;;;;5068482;28;20052;-76
2021/01/07 07:13:31;;;;;;;9.05;4.97;;;0.30;99.90;;;;;;5068792;28;20070;-76
2021/01/07 07:16:02;;;;;;;8.05;4.05;;;0.30;99.90;;;;;;5071037;28;20364;-76
2021/01/07 07:18:36;;;;;;;12.15;5.03;;;0.30;99.90;;;;;;5035391;28;20028;-76
2021/01/07 07:21:16;;;;;;;9.25;4.50;;;0.30;99.90;;;;;;5086515;28;20067;-76
2021/01/07 07:23:43;;;;;;;10.07;4.88;;;0.30;99.90;;;;;;5065526;28;20029;-76
2021/01/07 07:26:12;;;;;;;9.73;4.38;;;0.30;99.90;;;;;;5068292;28;20040;-76
2021/01/07 07:28:42;;;;;;;9.43;4.28;;;0.30;99.90;;;;;;5052984;28;20122;-76
2021/01/07 07:31:08;;;;;;;7.25;4.03;;;0.30;99.90;;;;;;5053601;28;20505;-76
2021/01/07 07:33:41;;;;;;;9.75;5.22;;;0.30;99.90;;;;;;5042136;28;20033;-77
2021/01/07 07:36:09;;;;;;;9.98;4.45;;;0.40;99.90;;;;;;5059503;28;20475;-77
2021/01/07 07:38:36;;;;;;;8.43;4.38;;;0.30;99.90;;;;;;5061395;28;20036;-76
2021/01/07 07:41:10;;;;;;;7.10;4.00;;;0.30;99.90;;;;;;5058214;28;20094;-76
2021/01/07 07:43:37;;;;;;;7.68;4.32;;;0.30;99.90;;;;;;5065465;28;20052;-76
2021/01/07 07:46:04;;;;;;;8.73;4.53;;;0.30;99.90;;;;;;5065779;28;20554;-76
2021/01/07 07:48:31;;;;;;;8.43;4.35;;;0.30;99.90;;;;;;5058231;28;20033;-77
2021/01/07 07:51:05;;;;;;;9.02;4.75;;;0.30;99.90;;;;;;5060662;28;20027;-76
2021/01/07 07:53:31;;;;;;;9.20;4.82;;;0.30;99.90;;;;;;5061432;28;20029;-76
2021/01/07 07:55:57;;;;;;;11.18;4.88;;;0.30;99.90;;;;;;5061888;28;20397;-76
2021/01/07 07:58:22;;;;;;;8.90;4.50;;;0.30;99.90;;;;;;5057323;28;20021;-76
2021/01/07 08:00:50;;;;;;;10.05;4.55;;;0.30;99.90;;;;;;5058141;28;20017;-75
2021/01/07 08:03:24;;;;;;;9.27;5.25;;;0.30;99.90;;;;;;5045891;28;20033;-76
2021/01/07 08:05:50;;;;;;;10.77;4.85;;;0.40;99.90;;;;;;5065622;28;20119;-76
2021/01/07 08:08:23;;;;;;;10.43;4.93;;;0.40;99.90;;;;;;5065505;28;20123;-76
2021/01/07 08:10:51;;;;;;;9.27;4.68;;;0.40;99.90;;;;;;5068895;28;20550;-75
2021/01/07 08:13:22;;;;;;;12.80;4.60;;;0.40;99.90;;;;;;5066556;28;20073;-75
2021/01/07 08:15:50;;;;;;;8.73;4.10;;;0.40;99.90;;;;;;5066568;28;20409;-75
2021/01/07 08:18:24;;;;;;;11.25;4.85;;;0.40;99.90;;;;;;5066532;28;20490;-75
2021/01/07 08:20:52;;;;;;;8.63;4.38;;;0.40;99.90;;;;;;5059122;28;20116;-75
2021/01/07 08:23:19;;;;;;;8.10;3.85;;;0.40;99.90;;;;;;5063920;28;20086;-75
2021/01/07 08:25:50;;;;;;;8.65;4.47;;;0.40;99.90;;;;;;5040958;28;20052;-75
2021/01/07 08:28:34;;;;;;;10.27;4.97;;;0.50;99.90;;;;;;5063561;28;20025;-75
2021/01/07 08:31:06;;;;;;;9.20;4.47;;;0.40;99.90;;;;;;5067695;28;20363;-75
2021/01/07 08:33:34;;;;;;;9.48;4.80;;;0.50;99.90;;;;;;5063445;28;20032;-75
2021/01/07 08:36:02;;;;;;;11.05;4.45;;;0.50;99.90;;;;;;5066692;28;20113;-75
2021/01/07 08:38:33;;;;;;;9.85;4.63;;;0.40;99.90;;;;;;5061495;28;20020;-75
2021/01/07 08:41:16;;;;;;;8.30;4.47;;;0.40;99.90;;;;;;5065525;28;20037;-75
2021/01/07 08:43:44;;;;;;;8.30;4.47;;;0.50;99.90;;;;;;5059659;28;20037;-75
2021/01/07 08:46:23;;;;;;;7.20;3.90;;;0.50;99.90;;;;;;5064059;28;20051;-75
2021/01/07 08:49:04;;;;;;;10.30;5.35;;;0.50;99.90;;;;;;5064786;28;20502;-75
2021/01/07 08:51:43;;;;;;;10.50;4.50;;;0.50;99.90;;;;;;5061413;28;20024;-75
2021/01/07 08:54:13;;;;;;;10.70;4.28;;;0.50;99.90;;;;;;5063384;28;20662;-75
2021/01/07 08:56:41;;;;;;;9.35;4.50;;;0.50;99.90;;;;;;5059725;28;20514;-75
2021/01/07 08:59:42;;;;;;;9.60;4.60;;;0.50;99.90;;;;;;5065728;28;20048;-75
2021/01/07 09:02:07;;;;;;;9.02;4.32;;;0.60;99.90;;;;;;5064420;28;20032;-75
2021/01/07 09:04:38;;;;;;;7.45;4.05;;;0.60;99.90;;;;;;5065362;28;20085;-75
2021/01/07 09:07:13;;;;;;;10.27;4.82;;;0.60;99.90;;;;;;5062458;28;20028;-75
2021/01/07 09:09:53;;;;;;;10.70;4.70;;;0.60;99.90;;;;;;5066890;28;20040;-75
2021/01/07 09:12:33;;;;;;;9.18;4.57;;;0.60;99.90;;;;;;5069158;28;20036;-75
2021/01/07 09:15:23;;;;;;;8.10;3.90;;;0.70;99.90;;;;;;5061570;28;20040;-77
2021/01/07 09:17:55;;;;;;;9.45;4.90;;;0.70;99.90;;;;;;5062423;28;20053;-77
2021/01/07 09:20:32;;;;;;;9.70;4.70;;;0.70;99.90;;;;;;5064243;28;20035;-78
2021/01/07 09:23:09;;;;;;;7.93;4.25;;;0.70;99.90;;;;;;5064376;28;20055;-76
2021/01/07 09:25:35;;;;;;;9.55;4.25;;;0.70;99.90;;;;;;5063335;28;20402;-77
2021/01/07 09:28:02;;;;;;;11.52;4.75;;;0.70;99.90;;;;;;5055231;28;20090;-78
2021/01/07 09:30:29;;;;;;;9.07;4.97;;;0.70;99.90;;;;;;5057678;28;20116;-78
2021/01/07 09:32:56;;;;;;;8.05;4.90;;;0.70;99.90;;;;;;5047594;28;20028;-77
2021/01/07 09:35:22;;;;;;;11.23;4.78;;;0.70;99.90;;;;;;5054796;28;20128;-77
2021/01/07 09:37:48;;;;;;;10.02;4.75;;;0.70;99.90;;;;;;5048859;28;20045;-77
2021/01/07 09:40:15;;;;;;;8.25;4.28;;;0.70;99.90;;;;;;5037356;28;20025;-77
2021/01/07 09:42:41;;;;;;;9.32;4.82;;;0.70;99.90;;;;;;5047226;28;20085;-77
2021/01/07 09:45:08;;;;;;;10.85;5.10;;;0.70;99.90;;;;;;5067122;28;20044;-77
2021/01/07 09:47:36;;;;;;;8.52;4.40;;;0.80;99.90;;;;;;5066070;28;20044;-78
2021/01/07 09:50:13;;;;;;;9.05;4.13;;;0.90;99.90;;;;;;5065050;28;20678;-77
2021/01/07 09:52:39;;;;;;;7.32;4.30;;;0.80;99.90;;;;;;5062906;28;20498;-77
2021/01/07 09:55:07;;;;;;;8.10;4.13;;;0.80;99.90;;;;;;5065889;28;20645;-77
2021/01/07 09:57:33;;;;;;;8.07;4.50;;;0.80;99.90;;;;;;5048762;28;20031;-77
2021/01/07 09:59:59;;;;;;;9.30;4.60;;;0.80;99.90;;;;;;5064926;28;20031;-77
2021/01/07 10:02:25;;;;;;;7.68;4.00;;;0.80;99.90;;;;;;5048714;28;20546;-77
2021/01/07 10:04:50;;;;;;;9.25;4.63;;;0.80;99.90;;;;;;5065328;28;20027;-77
2021/01/07 10:07:16;;;;;;;8.93;4.10;;;0.80;99.90;;;;;;5048360;28;20033;-77
2021/01/07 10:09:42;;;;;;;6.78;3.65;;;0.90;99.90;;;;;;5064283;28;20040;-75
2021/01/07 10:12:09;;;;;;;9.45;4.57;;;0.90;99.90;;;;;;5047215;28;20139;-75
2021/01/07 10:14:35;;;;;;;10.00;4.15;;;0.90;99.90;;;;;;5049901;28;20066;-75
2021/01/07 10:17:02;;;;;;;8.48;4.22;;;0.90;99.90;;;;;;5054566;28;20039;-75
2021/01/07 10:19:36;;;;;;;8.10;4.47;;;0.90;99.90;;;;;;5048244;28;20446;-75
2021/01/07 10:22:10;;;;;;;7.75;3.88;;;0.90;99.90;;;;;;5052576;28;20115;-75
2021/01/07 10:24:45;;;;;;;7.90;3.80;;;1.00;99.90;;;;;;5054075;28;20872;-75
2021/01/07 10:27:16;;;;;;;10.05;4.00;;;1.00;99.90;;;;;;5056851;28;20040;-75
2021/01/07 10:29:42;;;;;;;6.53;3.63;;;1.00;99.90;;;;;;5056121;28;20037;-75
2021/01/07 10:32:18;;;;;;;8.48;4.30;;;1.00;99.90;;;;;;5055878;28;20585;-75
2021/01/07 10:34:46;;;;;;;8.52;3.95;;;1.00;99.90;;;;;;5045660;28;20564;-75
2021/01/07 10:37:13;;;;;;;9.15;4.68;;;1.00;99.90;;;;;;5060927;28;20032;-76
2021/01/07 10:39:41;;;;;;;8.15;3.80;;;1.00;99.90;;;;;;5043331;28;20475;-75
2021/01/07 10:42:09;;;;;;;9.63;4.07;;;0.90;99.90;;;;;;5064380;28;20132;-75
2021/01/07 10:44:37;;;;;;;9.00;4.00;;;0.90;99.90;;;;;;5059845;28;20036;-75
2021/01/07 10:47:05;;;;;;;10.38;4.75;;;0.90;99.90;;;;;;5062090;28;20502;-75
2021/01/07 10:49:33;;;;;;;10.02;4.47;;;1.00;99.90;;;;;;5067949;28;20029;-75
2021/01/07 10:52:07;;;;;;;8.43;4.20;;;1.00;99.90;;;;;;5062663;28;20017;-75
2021/01/07 10:54:51;;;;;;;8.75;4.20;;;1.00;99.90;;;;;;5065545;28;20025;-75
2021/01/07 10:57:58;;;;;;;12.70;4.90;;;1.00;99.90;;;;;;5058125;28;20530;-75
2021/01/07 11:00:52;;;;;;;12.30;5.63;;;1.10;99.90;;;;;;4989491;28;20030;-75
2021/01/07 11:03:35;;;;;;;11.52;5.43;;;1.10;99.90;;;;;;4982911;28;20030;-75
2021/01/07 11:06:06;;;;;;;12.57;5.57;;;1.20;99.90;;;;;;5039351;28;20029;-75
2021/01/07 11:08:53;;;;;;;11.27;5.13;;;1.20;99.90;;;;;;5068444;28;20039;-75
2021/01/07 11:11:24;;;;;;;12.40;6.20;;;1.20;99.90;;;;;;5068945;28;20043;-75
2021/01/07 11:14:07;;;;;;;10.75;5.40;;;1.20;99.90;;;;;;5060172;28;20021;-75
2021/01/07 11:17:04;;;;;;;12.57;5.82;;;1.20;99.90;;;;;;5062094;28;20037;-75
2021/01/07 11:19:31;;;;;;;13.32;6.93;;;1.30;99.90;;;;;;5078130;28;20445;-75
2021/01/07 11:22:12;;;;;;;12.52;5.68;;;1.30;99.90;;;;;;5057133;28;20043;-75
2021/01/07 11:24:42;;;;;;;12.18;6.03;;;1.20;99.90;;;;;;5067668;28;20043;-75
2021/01/07 11:27:11;;;;;;;14.50;6.22;;;1.30;99.90;;;;;;5045835;28;20037;-75
2021/01/07 11:29:40;;;;;;;14.25;6.75;;;1.30;99.90;;;;;;5060557;28;20035;-75
2021/01/07 11:32:07;;;;;;;11.57;5.47;;;1.30;99.90;;;;;;5057427;28;20029;-75
2021/01/07 11:34:33;;;;;;;13.25;5.88;;;1.20;99.90;;;;;;5064040;28;20037;-75
2021/01/07 11:37:31;;;;;;;14.85;6.03;;;1.30;99.90;;;;;;5060209;28;20618;-75
2021/01/07 11:39:56;;;;;;;12.65;5.95;;;1.30;99.90;;;;;;5057814;28;20025;-75
2021/01/07 11:42:59;;;;;;;12.73;6.40;;;1.30;99.90;;;;;;5063864;28;20098;-75
2021/01/07 11:45:33;;;;;;;11.48;5.68;;;1.20;99.90;;;;;;5059624;28;20028;-75
2021/01/07 11:48:07;;;;;;;10.77;5.45;;;1.30;99.90;;;;;;5061980;28;20142;-75
2021/01/07 11:50:43;;;;;;;10.20;5.38;;;1.30;99.90;;;;;;5053871;28;20033;-75
2021/01/07 11:53:09;;;;;;;13.13;5.68;;;1.30;99.90;;;;;;5067499;28;20521;-75
2021/01/07 11:55:36;;;;;;;12.52;6.38;;;1.30;99.90;;;;;;5064158;28;20024;-75
2021/01/07 11:58:03;;;;;;;14.77;5.57;;;1.30;99.90;;;;;;5065192;28;20041;-75
2021/01/07 12:00:29;;;;;;;10.63;4.97;;;1.30;99.90;;;;;;5066113;28;20025;-75
2021/01/07 12:02:56;;;;;;;11.48;5.63;;;1.30;99.90;;;;;;5066647;28;20374;-75
2021/01/07 12:05:26;;;;;;;12.43;5.38;;;1.30;99.90;;;;;;5063829;28;20056;-75
2021/01/07 12:08:20;;;;;;;11.00;5.38;;;1.40;99.90;;;;;;5071114;28;20050;-75
2021/01/07 12:10:51;;;;;;;14.18;6.15;;;1.30;99.90;;;;;;5061654;28;20036;-75
2021/01/07 12:13:20;;;;;;;11.48;5.53;;;1.30;99.90;;;;;;5063718;28;20032;-75
2021/01/07 12:15:50;;;;;;;14.65;6.70;;;1.30;99.90;;;;;;5065464;28;20028;-75
2021/01/07 12:18:17;;;;;;;12.50;6.05;;;1.30;99.90;;;;;;5070935;28;20104;-75
2021/01/07 12:20:43;;;;;;;12.10;5.05;;;1.20;99.90;;;;;;5061874;28;20035;-75
2021/01/07 12:23:09;;;;;;;12.05;5.75;;;1.30;99.90;;;;;;5061090;28;20017;-75
2021/01/07 12:25:39;;;;;;;10.95;4.80;;;1.20;99.90;;;;;;5058565;28;20064;-75
2021/01/07 12:28:25;;;;;;;10.60;5.90;;;1.30;99.90;;;;;;5059575;28;20029;-77
2021/01/07 12:30:59;;;;;;;11.48;5.65;;;1.30;99.90;;;;;;5083825;28;20029;-77
2021/01/07 12:33:36;;;;;;;13.52;6.40;;;1.40;99.90;;;;;;5054587;28;20128;-77
2021/01/07 12:36:06;;;;;;;9.35;5.30;;;1.40;99.90;;;;;;5054114;28;20036;-77
2021/01/07 12:38:35;;;;;;;13.85;6.25;;;1.40;99.90;;;;;;5067894;28;20078;-77
2021/01/07 12:41:07;;;;;;;14.68;6.20;;;1.40;99.90;;;;;;5073686;28;20025;-78
2021/01/07 12:43:41;;;;;;;15.63;6.35;;;1.30;99.90;;;;;;5070090;28;20054;-78
2021/01/07 12:46:10;;;;;;;12.90;6.05;;;1.30;99.90;;;;;;5053414;28;20032;-77
2021/01/07 12:48:37;;;;;;;13.95;5.28;;;1.30;99.90;;;;;;5064536;28;20032;-77
2021/01/07 12:51:03;;;;;;;11.93;5.70;;;1.30;99.90;;;;;;5070673;28;20040;-77
2021/01/07 12:53:29;;;;;;;13.68;5.88;;;1.30;99.90;;;;;;5069373;28;20036;-78
2021/01/07 12:55:56;;;;;;;12.23;5.68;;;1.30;99.90;;;;;;5049107;28;20395;-75
2021/01/07 12:58:24;;;;;;;12.85;5.55;;;1.30;99.90;;;;;;5082663;28;20028;-75
2021/01/07 13:00:56;;;;;;;12.15;5.60;;;1.30;99.90;;;;;;5067943;28;20684;-75
2021/01/07 13:03:49;;;;;;;13.13;5.90;;;1.30;99.90;;;;;;5071995;28;20479;-76
2021/01/07 13:06:42;;;;;;;13.23;5.65;;;1.30;99.90;;;;;;5086240;28;20028;-77
2021/01/07 13:09:09;;;;;;;12.35;6.15;;;1.30;99.90;;;;;;5071269;28;20044;-75